METAR Data
IDs: Format: Raw Decoded Include TAF

Data at: 0920 UTC 18 Jan 2019

PAWM 180856Z AUTO 27007KT 10SM OVC003 M10/M11 A2991 RMK AO2 SLP133 T11001111 410441100 51014 FZRANO
PAWM 180823Z AUTO 24008KT 8SM OVC003 M09/M10 A2990 RMK AO2 FZRANO
PAWM 180811Z AUTO 23007KT 2SM BR OVC003 M09/M10 A2989 RMK AO2 VIS 1 1/4V5 FZRANO
PAWM 180756Z AUTO 25006KT 1 1/2SM BR OVC003 M09/M09 A2989 RMK AO2 VIS 3/4V5 SLP129 T10891094 FZRANO
PAWM 180743Z AUTO 23006KT 1 1/4SM BR OVC003 M08/M09 A2989 RMK AO2 VIS 3/4V2 FZRANO
PAWM 180717Z AUTO 27008KT 3/4SM BR OVC003 M08/M09 A2989 RMK AO2 VIS 1/2V3 FZRANO
PAWM 180708Z AUTO 25005KT 1 1/2SM BR OVC003 M08/M09 A2989 RMK AO2 VIS 3/4V4 FZRANO
PAWM 180656Z AUTO 27011KT 2 1/2SM BR OVC003 M08/M09 A2988 RMK AO2 VIS 1 3/4V5 SLP125 T10781089 FZRANO
PAWM 180645Z AUTO 25009KT 1 3/4SM BR OVC003 M08/M08 A2988 RMK AO2 FZRANO
PAWM 180556Z AUTO 25010KT 5SM BR OVC003 M07/M08 A2986 RMK AO2 UPB40E47SNE02B27E40 SLP119 P0000 60000 T10671078 11044 21067 53011 FZRANO
PAWM 180539Z AUTO 25009KT 3SM -SN BR OVC003 M06/M07 A2986 RMK AO2 SNE02B27 P0000 FZRANO
PAWM 180525Z AUTO 23008KT 1 1/4SM BR OVC003 M06/M06 A2986 RMK AO2 VIS 3/4V2 1/2 SNE02 P0000 FZRANO
PAWM 180518Z AUTO 20004KT 1SM BR OVC003 M06/M06 A2985 RMK AO2 SNE02 CIG 001V007 P0000 FZRANO
PAWM 180456Z AUTO 20004KT 3/4SM -SN BR OVC003 M06/M06 A2985 RMK AO2 UPB27E32SNB13E27B32 SLP114 P0000 T10561061 FZRANO
PAWM 180356Z AUTO 20003KT 1SM BR OVC003 M06/M06 A2984 RMK AO2 VIS 3/4V1 3/4 SNE14 SLP111 P0000 T10561061 FZRANO
PAWM 180348Z AUTO 20004KT 1SM BR OVC003 M06/M06 A2984 RMK AO2 SNE14 P0000 FZRANO
PAWM 180327Z AUTO 21004KT 3/4SM BR OVC003 M06/M06 A2984 RMK AO2 SNE14 P0000 FZRANO
PAWM 180313Z AUTO 20004KT 1SM -SN BR OVC003 M06/M06 A2983 RMK AO2 P0000 FZRANO
PAWM 180256Z AUTO 21004KT 1 1/4SM -SN BR OVC003 M05/M06 A2983 RMK AO2 VIS 3/4V2 UPB34E37SNE0157B19E34B37 SLP108 P0000 60000 T10501056 51009 FZRANO
PAWM 180254Z AUTO 21004KT 1 1/4SM -SN BR OVC003 M05/M06 A2983 RMK AO2 VIS 3/4V2 UPB34E37SNE0157B19E34B37 P0000 FZRANO
PAWM 180241Z AUTO 21005KT 3/4SM -SN BR OVC003 M05/M06 A2983 RMK AO2 UPB34E37SNE0157B19E34B37 P0000 FZRANO
PAWM 180233Z AUTO 21004KT 1/4SM -SN FZFG OVC003 M05/M06 A2982 RMK AO2 SNE0157B19 P0000 FZRANO
PAWM 180223Z AUTO 19004KT 1/2SM -SN FZFG OVC003 M05/M06 A2982 RMK AO2 SNE0157B19 P0000 FZRANO
PAWM 180219Z AUTO 18004KT 1SM -SN BR OVC003 M05/M06 A2982 RMK AO2 SNE0157B19 P0000 FZRANO
PAWM 180215Z AUTO 18004KT 2SM BR OVC003 M05/M06 A2982 RMK AO2 SNE0157 FZRANO
PAWM 180156Z AUTO 16004KT 5SM -SN BR BKN005 OVC014 M05/M06 A2981 RMK AO2 SNB10 SLP102 P0000 T10501061 FZRANO
PAWM 180147Z AUTO 16004KT 4SM -SN BR BKN005 BKN010 OVC014 M05/M06 A2981 RMK AO2 SNB10 CIG 004V008 P0000 FZRANO
PAWM 180123Z AUTO 15003KT 5SM -SN BR SCT007 OVC014 M05/M06 A2981 RMK AO2 SNB10 P0000 FZRANO
PAWM 180110Z AUTO 15004KT 4SM -SN BR OVC011 M05/M07 A2980 RMK AO2 SNB10 P0000 FZRANO
PAWM 180056Z AUTO 14004KT 8SM OVC009 M05/M07 A2980 RMK AO2 SLP098 T10501067 FZRANO
PAWM 180023Z AUTO 00000KT 10SM SCT009 OVC019 M04/M07 A2980 RMK AO2 FZRANO
PAWM 172356Z AUTO 12003KT 10SM OVC021 M04/M07 A2980 RMK AO2 SLP096 60000 T10441067 11044 21061 53005 FZRANO
PAWM 172205Z AUTO 00000KT 10SM SCT023 OVC030 M05/M07 A2978 RMK AO2 FZRANO
PAWM 172156Z AUTO 00000KT 9SM FEW023 BKN028 OVC037 M05/M07 A2978 RMK AO2 SNB06E55 SLP092 P0000 T10501072 FZRANO
PAWM 172151Z AUTO 00000KT 9SM -SN BKN028 OVC039 M05/M07 A2978 RMK AO2 SNB06 P0000 FZRANO
PAWM 172056Z AUTO 07003KT 10SM SCT024 OVC037 M05/M07 A2977 RMK AO2 SLP088 T10501072 51017 FZRANO
PAWM 171956Z AUTO 00000KT 10SM OVC024 M06/M08 A2976 RMK AO2 SLP083 T10611078 FZRANO
PAWM 171856Z AUTO 00000KT 10SM OVC026 M06/M08 A2974 RMK AO2 SLP079 T10611078 FZRANO
PAWM 171756Z AUTO 02005KT 10SM OVC028 M06/M08 A2972 RMK AO2 SLP071 60000 T10611078 11061 21078 51005 FZRANO
PAWM 171753Z AUTO 02006KT 10SM OVC028 M06/M08 A2972 RMK AO2 FZRANO
PAWM 171656Z AUTO 03005KT 10SM OVC032 M07/M08 A2972 RMK AO2 SNE01 SLP070 P0000 T10671083 FZRANO
PAWM 171556Z AUTO 36003KT 9SM -SN SCT020 SCT042 OVC065 M07/M08 A2971 RMK AO2 SLP066 P0000 T10671078 FZRANO
PAWM 171510Z AUTO 35004KT 3SM -SN BR OVC020 M08/M09 A2971 RMK AO2 P0000 FZRANO
PAWM 171504Z AUTO 35005KT 1 3/4SM -SN BR OVC020 M08/M09 A2971 RMK AO2 P0000 FZRANO
PAWM 171422Z AUTO 33005KT 2 1/2SM -SN OVC020 M08/M11 A2970 RMK AO2 P0000 FZRANO
PAWM 171356Z AUTO 34004KT 8SM -SN OVC022 M07/M12 A2970 RMK AO2 SNB00 SLP063 P0000 T10721117 FZRANO
PAWM 171256Z AUTO VRB03KT 10SM BKN022 OVC029 M07/M12 A2970 RMK AO2 SLP065 T10721122 FZRANO
PAWM 171156Z AUTO 36006KT 10SM BKN047 OVC060 M08/M13 A2970 RMK AO2 SLP062 T10781128 11078 21100 53002 FZRANO
PAWM 171056Z AUTO 01007KT 10SM OVC060 M08/M13 A2969 RMK AO2 SLP060 T10831128 FZRANO
PAWM 170956Z AUTO 36010KT 10SM SCT085 M09/M13 A2969 RMK AO2 SLP060 T10891133 FZRANO
PAWM 170856Z AUTO 36008KT 10SM OVC070 M10/M14 A2969 RMK AO2 SLP061 T11001139 410221100 53003 FZRANO
PAWM 170756Z AUTO 36007KT 10SM BKN080 M09/M13 A2968 RMK AO2 SLP058 T10941133 FZRANO
PAWM 170656Z AUTO 36005KT 10SM CLR M08/M13 A2969 RMK AO2 SLP060 T10831128 FZRANO
PAWM 170556Z AUTO 01006KT 10SM CLR M09/M13 A2968 RMK AO2 SLP057 T10941133 11056 21094 53004 FZRANO
PAWM 170356Z AUTO 36009KT 10SM CLR M08/M13 A2967 RMK AO2 SLP053 T10831133 FZRANO
PAWM 170156Z AUTO 36007KT 10SM CLR M07/M13 A2967 RMK AO2 SLP055 T10721128 FZRANO
PAWM 170056Z AUTO 36004KT 10SM CLR M07/M12 A2967 RMK AO2 SLP055 T10671122 FZRANO
PAWM 162356Z AUTO 00000KT 10SM CLR M07/M12 A2968 RMK AO2 SLP057 T10671122 11044 21083 56007 FZRANO
PAWM 162256Z AUTO 05004KT 10SM CLR M05/M12 A2969 RMK AO2 SLP058 T10501117 FZRANO
PAWM 162156Z AUTO 06006KT 10SM CLR M06/M12 A2969 RMK AO2 SLP061 T10561117 FZRANO